Time;durP1;ratioP1;P1;durP2;ratioP2;P2;SDS_P1;SDS_P2;PMS_P1;PMS_P2;Temp;Humidity;BMP_temperature;BMP_pressure;BME280_temperature;BME280_humidity;BME280_pressure;Samples;Min_cycle;Max_cycle;Signal;HPM_P1;HPM_P2
2022/07/03 00:02:03;;;;;;;3.30;3.00;;;16.40;99.90;;;;;;5017077;28;20306;-83
2022/07/03 00:04:29;;;;;;;4.00;2.90;;;16.50;99.90;;;;;;5016414;28;20265;-86
2022/07/03 00:06:55;;;;;;;3.70;2.83;;;16.50;99.90;;;;;;5014187;28;20227;-85
2022/07/03 00:09:21;;;;;;;6.00;3.93;;;16.50;99.90;;;;;;5012272;28;20226;-84
2022/07/03 00:11:47;;;;;;;3.23;2.93;;;16.50;99.90;;;;;;5012140;28;20195;-83
2022/07/03 00:14:13;;;;;;;5.97;3.67;;;16.60;99.90;;;;;;5011254;28;20199;-84
2022/07/03 00:16:38;;;;;;;4.53;3.17;;;16.60;99.90;;;;;;5013531;28;20254;-84
2022/07/03 00:19:04;;;;;;;3.90;3.40;;;16.60;99.90;;;;;;5011016;28;20222;-84
2022/07/03 00:21:48;;;;;;;3.10;2.40;;;16.20;99.90;;;;;;5013183;28;20211;-83
2022/07/03 00:24:26;;;;;;;4.10;2.20;;;15.80;99.90;;;;;;5011462;28;20321;-85
2022/07/03 00:26:53;;;;;;;4.07;2.10;;;15.40;99.90;;;;;;5043034;28;20271;-84
2022/07/03 00:29:23;;;;;;;2.03;1.83;;;15.10;99.90;;;;;;4984796;28;20246;-83
2022/07/03 00:31:49;;;;;;;3.73;2.70;;;14.70;99.90;;;;;;5016573;28;20228;-83
2022/07/03 00:34:19;;;;;;;7.47;2.93;;;14.60;99.90;;;;;;4999883;28;20250;-84
2022/07/03 00:36:47;;;;;;;3.93;2.40;;;14.60;99.90;;;;;;4991149;28;20235;-85
2022/07/03 00:39:13;;;;;;;7.57;3.27;;;14.60;99.90;;;;;;5003404;28;20222;-86
2022/07/03 00:41:42;;;;;;;3.80;2.93;;;14.80;99.90;;;;;;5002615;28;20647;-83
2022/07/03 00:44:08;;;;;;;4.97;3.80;;;14.90;99.90;;;;;;5003837;28;20219;-86
2022/07/03 00:46:38;;;;;;;4.23;3.50;;;15.00;99.90;;;;;;5003771;28;20285;-85
2022/07/03 00:49:08;;;;;;;4.40;3.17;;;15.10;99.90;;;;;;5003313;28;20219;-85
2022/07/03 00:51:37;;;;;;;3.43;2.80;;;15.00;99.90;;;;;;5002509;28;20231;-84
2022/07/03 00:54:03;;;;;;;3.07;2.80;;;14.70;99.90;;;;;;5003215;28;20545;-84
2022/07/03 00:56:31;;;;;;;2.70;2.23;;;14.40;99.90;;;;;;5002639;28;20222;-83
2022/07/03 00:58:59;;;;;;;3.53;3.10;;;14.30;99.90;;;;;;5002460;28;20701;-85
2022/07/03 01:01:32;;;;;;;6.60;3.27;;;14.40;99.90;;;;;;5002862;28;20231;-85
2022/07/03 01:04:07;;;;;;;4.67;3.00;;;14.40;99.90;;;;;;5025536;28;20784;-84
2022/07/03 01:06:39;;;;;;;3.43;3.13;;;14.40;99.90;;;;;;4985928;28;21116;-84
2022/07/03 01:09:06;;;;;;;5.27;3.20;;;14.40;99.90;;;;;;5021215;28;20664;-84
2022/07/03 01:11:41;;;;;;;4.20;3.80;;;14.40;99.90;;;;;;5019933;28;20188;-84
2022/07/03 01:14:29;;;;;;;4.57;3.27;;;14.40;99.90;;;;;;4990871;28;20563;-82
2022/07/03 01:17:01;;;;;;;4.97;3.87;;;14.50;99.90;;;;;;4985711;28;21011;-83
2022/07/03 01:19:43;;;;;;;5.00;4.00;;;14.50;99.90;;;;;;4988877;28;20231;-85
2022/07/03 01:22:33;;;;;;;8.53;4.70;;;14.60;99.90;;;;;;4990075;28;20227;-85
2022/07/03 01:25:05;;;;;;;5.87;3.93;;;14.80;99.90;;;;;;4987873;28;20223;-84
2022/07/03 01:27:46;;;;;;;4.23;3.60;;;14.80;99.90;;;;;;5020679;28;20286;-84
2022/07/03 01:30:13;;;;;;;3.33;2.80;;;14.70;99.90;;;;;;4991204;28;20220;-86
2022/07/03 01:32:45;;;;;;;5.60;3.80;;;14.60;99.90;;;;;;4990753;28;20228;-85
2022/07/03 01:35:22;;;;;;;4.03;3.47;;;14.50;99.90;;;;;;4994606;28;20238;-83
2022/07/03 01:37:50;;;;;;;6.87;3.70;;;14.40;99.90;;;;;;4988984;28;20716;-84
2022/07/03 01:40:17;;;;;;;4.67;3.63;;;14.40;99.90;;;;;;4993822;28;20334;-86
2022/07/03 01:42:44;;;;;;;5.73;4.80;;;14.40;99.90;;;;;;4991997;28;20314;-85
2022/07/03 01:45:14;;;;;;;6.20;5.00;;;14.60;99.90;;;;;;4989934;28;20192;-85
2022/07/03 01:47:42;;;;;;;5.73;4.80;;;14.70;99.90;;;;;;5021269;28;20194;-83
2022/07/03 01:50:11;;;;;;;7.97;5.27;;;14.80;99.90;;;;;;4990903;28;20331;-84
2022/07/03 01:52:42;;;;;;;10.67;5.33;;;14.90;99.90;;;;;;4991230;28;20628;-85
2022/07/03 01:55:12;;;;;;;8.03;4.90;;;15.10;99.90;;;;;;4990984;28;20688;-84
2022/07/03 01:57:49;;;;;;;5.03;4.50;;;15.20;99.90;;;;;;4993773;28;20234;-84
2022/07/03 02:00:21;;;;;;;6.77;4.60;;;15.20;99.90;;;;;;4987738;28;20297;-84
2022/07/03 02:03:04;;;;;;;10.00;6.67;;;15.20;99.90;;;;;;4989628;28;20252;-84
2022/07/03 02:05:34;;;;;;;9.77;7.10;;;15.20;99.90;;;;;;5011653;28;20210;-85
2022/07/03 02:08:11;;;;;;;8.70;5.53;;;15.20;99.90;;;;;;5008301;28;20215;-83
2022/07/03 02:10:51;;;;;;;9.70;5.87;;;15.30;99.90;;;;;;5010336;28;20210;-86
2022/07/03 02:13:22;;;;;;;6.10;5.50;;;15.30;99.90;;;;;;5020088;28;20210;-84
2022/07/03 02:15:53;;;;;;;8.40;5.97;;;15.30;99.90;;;;;;5014021;28;20583;-83
2022/07/03 02:18:27;;;;;;;9.93;5.50;;;15.30;99.90;;;;;;5009291;28;20217;-83
2022/07/03 02:21:18;;;;;;;5.87;5.00;;;15.40;99.90;;;;;;5010383;28;20183;-84
2022/07/03 02:24:17;;;;;;;8.50;5.53;;;15.40;99.90;;;;;;5009741;28;20183;-86
2022/07/03 02:26:51;;;;;;;5.53;4.83;;;15.50;99.90;;;;;;5013441;28;20218;-83
2022/07/03 02:29:20;;;;;;;7.70;5.20;;;15.50;99.90;;;;;;5005750;28;20223;-82
2022/07/03 02:31:56;;;;;;;6.10;5.00;;;15.50;99.90;;;;;;5010830;28;20260;-84
2022/07/03 02:34:23;;;;;;;6.20;4.27;;;15.50;99.90;;;;;;5009240;28;20553;-84
2022/07/03 02:36:55;;;;;;;7.90;5.20;;;15.50;99.90;;;;;;5013182;28;20222;-85
2022/07/03 02:39:29;;;;;;;7.13;4.80;;;15.60;99.90;;;;;;5009317;28;20774;-84
2022/07/03 02:42:04;;;;;;;5.30;4.53;;;15.60;99.90;;;;;;5012201;28;20179;-86
2022/07/03 02:44:46;;;;;;;7.63;5.23;;;15.60;99.90;;;;;;5018149;28;20614;-85
2022/07/03 02:47:21;;;;;;;5.87;4.43;;;15.60;99.90;;;;;;5011533;28;20228;-83
2022/07/03 02:49:58;;;;;;;7.70;5.03;;;15.60;99.90;;;;;;5010730;28;20256;-83
2022/07/03 02:52:42;;;;;;;17.40;4.93;;;15.70;99.90;;;;;;5012637;28;20757;-85
2022/07/03 02:55:17;;;;;;;5.70;4.20;;;15.80;99.90;;;;;;5017196;28;20295;-85
2022/07/03 02:57:43;;;;;;;5.23;3.80;;;15.90;99.90;;;;;;5007688;28;20218;-85
2022/07/03 03:00:11;;;;;;;5.10;4.50;;;15.90;99.90;;;;;;5009998;28;21320;-85
2022/07/03 03:02:49;;;;;;;5.20;3.90;;;16.00;99.90;;;;;;5042039;28;20226;-85
2022/07/03 03:05:46;;;;;;;9.53;4.57;;;16.00;99.90;;;;;;5005724;28;20559;-85
2022/07/03 03:08:24;;;;;;;6.30;4.30;;;16.00;99.90;;;;;;5008638;28;20214;-85
2022/07/03 03:10:51;;;;;;;6.07;4.30;;;16.10;99.90;;;;;;5010246;28;20628;-84
2022/07/03 03:13:19;;;;;;;4.43;3.63;;;16.10;99.90;;;;;;5009049;28;20290;-83
2022/07/03 03:16:06;;;;;;;4.93;3.83;;;16.10;99.90;;;;;;5035925;28;20254;-86
2022/07/03 03:18:34;;;;;;;7.37;3.27;;;16.10;99.90;;;;;;5006577;28;20743;-83
2022/07/03 03:21:02;;;;;;;5.97;3.70;;;16.20;99.90;;;;;;5005728;28;20214;-85
2022/07/03 03:23:50;;;;;;;5.90;4.37;;;16.10;99.90;;;;;;5005970;28;20233;-85
2022/07/03 03:26:21;;;;;;;4.77;3.47;;;16.10;99.90;;;;;;5012362;28;20245;-83
2022/07/03 03:28:47;;;;;;;6.80;3.47;;;16.10;99.90;;;;;;5007848;28;20978;-84
2022/07/03 03:31:13;;;;;;;4.80;4.00;;;16.00;99.90;;;;;;5012727;28;20222;-84
2022/07/03 03:33:41;;;;;;;7.40;4.17;;;16.00;99.90;;;;;;5010638;28;20289;-85
2022/07/03 03:36:11;;;;;;;5.37;3.83;;;16.10;99.90;;;;;;5040695;28;20306;-85
2022/07/03 03:38:37;;;;;;;3.67;3.30;;;16.10;99.90;;;;;;5024457;28;20191;-85
2022/07/03 03:41:04;;;;;;;5.00;3.70;;;16.20;99.90;;;;;;5016090;28;20227;-83
2022/07/03 03:43:31;;;;;;;4.27;3.73;;;16.20;99.90;;;;;;5007941;28;20727;-85
2022/07/03 03:45:58;;;;;;;7.47;3.70;;;16.30;99.90;;;;;;5038596;28;20692;-86
2022/07/03 03:48:24;;;;;;;4.20;3.77;;;16.40;99.90;;;;;;5011082;28;20269;-84
2022/07/03 03:50:50;;;;;;;4.07;3.20;;;16.50;99.90;;;;;;5009368;28;20660;-84
2022/07/03 03:53:18;;;;;;;7.67;4.53;;;16.50;99.90;;;;;;5011026;28;20330;-83
2022/07/03 03:55:54;;;;;;;4.23;3.83;;;16.60;99.90;;;;;;5024984;28;20233;-84
2022/07/03 03:58:20;;;;;;;7.87;3.20;;;16.60;99.90;;;;;;5041828;28;20214;-84
2022/07/03 04:00:46;;;;;;;3.47;2.93;;;16.50;99.90;;;;;;5024302;28;20223;-84
2022/07/03 04:03:11;;;;;;;3.50;2.47;;;16.50;99.90;;;;;;5009507;28;20191;-84
2022/07/03 04:05:37;;;;;;;4.17;3.10;;;16.40;99.90;;;;;;5025851;28;20274;-85
2022/07/03 04:08:03;;;;;;;3.17;2.60;;;16.40;99.90;;;;;;5011789;28;20275;-84
2022/07/03 04:10:29;;;;;;;4.47;3.40;;;16.30;99.90;;;;;;5041909;28;20215;-85
2022/07/03 04:12:54;;;;;;;3.83;2.80;;;16.40;99.90;;;;;;5022643;28;20289;-84
2022/07/03 04:15:20;;;;;;;3.30;2.83;;;16.40;99.90;;;;;;5005954;28;20245;-83
2022/07/03 04:17:50;;;;;;;3.20;2.63;;;16.50;99.90;;;;;;5008632;28;20199;-84
2022/07/03 04:20:15;;;;;;;3.30;3.00;;;16.60;99.90;;;;;;5025608;28;20226;-85
2022/07/03 04:22:41;;;;;;;4.00;3.40;;;16.80;99.90;;;;;;5033668;28;20431;-85
2022/07/03 04:25:07;;;;;;;5.00;3.10;;;16.90;99.90;;;;;;5008962;28;20276;-85
2022/07/03 04:27:33;;;;;;;4.27;3.20;;;17.00;99.90;;;;;;4990093;28;20212;-86
2022/07/03 04:29:59;;;;;;;4.20;2.73;;;17.00;99.90;;;;;;5012779;28;20265;-83
2022/07/03 04:32:25;;;;;;;5.73;3.17;;;17.00;99.90;;;;;;5006905;28;20206;-87
2022/07/03 04:34:50;;;;;;;3.80;2.90;;;17.10;99.90;;;;;;5007931;28;20222;-84
2022/07/03 04:37:16;;;;;;;3.53;3.00;;;17.10;99.90;;;;;;5007916;28;20230;-85
2022/07/03 04:39:42;;;;;;;3.40;3.10;;;17.10;99.90;;;;;;5039900;28;20303;-84
2022/07/03 04:42:07;;;;;;;5.60;3.37;;;17.20;99.90;;;;;;5006445;28;20191;-87
2022/07/03 04:44:33;;;;;;;3.83;3.33;;;17.30;99.90;;;;;;5005308;28;20195;-83
2022/07/03 04:46:59;;;;;;;9.13;3.40;;;17.20;99.90;;;;;;5006017;28;20238;-86
2022/07/03 04:49:24;;;;;;;4.07;3.40;;;17.20;99.90;;;;;;5025813;28;20237;-86
2022/07/03 04:51:52;;;;;;;4.27;3.80;;;17.10;99.90;;;;;;5005339;28;20272;-87
2022/07/03 04:54:18;;;;;;;3.33;3.03;;;17.10;99.90;;;;;;5010220;28;20219;-83
2022/07/03 04:56:43;;;;;;;4.73;3.20;;;17.10;99.90;;;;;;5029165;28;20285;-87
2022/07/03 04:59:09;;;;;;;5.23;3.40;;;17.10;99.90;;;;;;5011829;28;20223;-84
2022/07/03 05:01:35;;;;;;;4.30;2.87;;;17.10;99.90;;;;;;5008885;28;20426;-85
2022/07/03 05:04:00;;;;;;;5.10;3.37;;;17.10;99.90;;;;;;5026169;28;20673;-84
2022/07/03 05:06:26;;;;;;;7.10;4.20;;;17.20;99.90;;;;;;5009637;28;20289;-86
2022/07/03 05:08:52;;;;;;;4.47;3.47;;;17.20;99.90;;;;;;5036157;28;20192;-86
2022/07/03 05:11:17;;;;;;;5.37;3.63;;;17.30;99.90;;;;;;4991940;28;20226;-85
2022/07/03 05:13:43;;;;;;;3.67;3.07;;;17.60;99.90;;;;;;5007478;28;20707;-86
2022/07/03 05:16:09;;;;;;;3.57;2.93;;;17.80;99.90;;;;;;5011881;28;20234;-85
2022/07/03 05:18:35;;;;;;;6.17;3.17;;;18.20;99.90;;;;;;5009199;28;21105;-85
2022/07/03 05:21:01;;;;;;;3.37;2.90;;;19.60;99.90;;;;;;5013732;28;20202;-84
2022/07/03 05:23:27;;;;;;;4.50;2.67;;;22.00;99.90;;;;;;5011873;28;20493;-83
2022/07/03 05:25:55;;;;;;;3.70;2.30;;;22.90;99.90;;;;;;5016484;28;20289;-87
2022/07/03 05:28:21;;;;;;;2.57;2.37;;;22.80;99.90;;;;;;5016674;28;20226;-86
2022/07/03 05:30:47;;;;;;;2.53;1.93;;;22.70;99.90;;;;;;5015693;28;20425;-86
2022/07/03 05:33:12;;;;;;;2.50;2.30;;;23.10;99.90;;;;;;5044547;28;20906;-86
2022/07/03 05:35:38;;;;;;;5.23;2.50;;;23.10;99.90;;;;;;5011145;28;20223;-87
2022/07/03 05:38:04;;;;;;;2.53;2.33;;;22.80;99.90;;;;;;5010390;28;20254;-86
2022/07/03 05:40:29;;;;;;;3.13;2.30;;;24.00;99.90;;;;;;5046751;28;20314;-85
2022/07/03 05:42:55;;;;;;;2.50;2.03;;;26.60;99.90;;;;;;5030572;28;20342;-86
2022/07/03 05:45:21;;;;;;;2.40;2.20;;;29.60;99.90;;;;;;5007836;28;20297;-86
2022/07/03 05:47:47;;;;;;;3.17;1.90;;;32.10;99.90;;;;;;5025154;28;20966;-86
2022/07/03 05:50:12;;;;;;;2.50;1.80;;;32.40;99.90;;;;;;5005172;28;20312;-86
2022/07/03 05:52:38;;;;;;;2.17;1.98;;;31.70;99.40;;;;;;4987939;28;21031;-85
2022/07/03 05:55:04;;;;;;;1.70;1.60;;;30.50;99.90;;;;;;5007034;28;20260;-86
2022/07/03 05:57:30;;;;;;;2.58;1.75;;;32.00;99.90;;;;;;5010038;28;20660;-85
2022/07/03 05:59:56;;;;;;;2.17;1.73;;;32.50;97.80;;;;;;5004892;28;20688;-85
2022/07/03 06:02:22;;;;;;;3.72;1.90;;;32.40;98.40;;;;;;5012402;28;20199;-88
2022/07/03 06:04:47;;;;;;;1.80;1.48;;;33.80;97.10;;;;;;5005552;28;20938;-86
2022/07/03 06:07:13;;;;;;;1.60;1.50;;;34.10;96.40;;;;;;5008036;28;20226;-85
2022/07/03 06:09:39;;;;;;;1.55;1.45;;;34.80;94.90;;;;;;5005571;28;20681;-84
2022/07/03 06:12:05;;;;;;;2.75;1.35;;;35.20;94.40;;;;;;5024645;28;20663;-86
2022/07/03 06:14:31;;;;;;;2.20;1.45;;;34.50;94.00;;;;;;5004997;28;20188;-84
2022/07/03 06:16:56;;;;;;;2.22;1.55;;;35.30;93.40;;;;;;5006428;28;21319;-86
2022/07/03 06:19:22;;;;;;;2.35;0.93;;;35.90;92.10;;;;;;5007171;28;20810;-88
2022/07/03 06:21:48;;;;;;;1.50;1.00;;;33.80;93.70;;;;;;5007758;28;20214;-90
2022/07/03 06:24:13;;;;;;;3.03;1.25;;;33.30;96.70;;;;;;5004868;28;20293;-85
2022/07/03 06:26:39;;;;;;;1.33;0.98;;;33.10;94.20;;;;;;5041965;28;20196;-86
2022/07/03 06:29:05;;;;;;;1.30;1.00;;;33.50;95.20;;;;;;5004750;28;20219;-89
2022/07/03 06:31:31;;;;;;;1.83;1.00;;;32.90;94.00;;;;;;5005458;28;20223;-87
2022/07/03 06:33:57;;;;;;;4.55;1.30;;;32.00;97.30;;;;;;5008383;28;20237;-89
2022/07/03 06:36:23;;;;;;;1.92;0.90;;;31.50;97.80;;;;;;5011579;28;20262;-86
2022/07/03 06:38:48;;;;;;;2.38;1.23;;;29.50;99.90;;;;;;5015337;28;20192;-86
2022/07/03 06:41:14;;;;;;;2.90;1.05;;;30.10;99.90;;;;;;5041371;28;20218;-87
2022/07/03 06:43:40;;;;;;;1.70;0.90;;;29.30;99.90;;;;;;5006832;28;20665;-87
2022/07/03 06:46:05;;;;;;;1.73;0.80;;;28.80;99.90;;;;;;5004037;28;20239;-86
2022/07/03 06:48:31;;;;;;;1.35;0.70;;;30.60;99.90;;;;;;5004752;28;20215;-87
2022/07/03 06:50:57;;;;;;;2.80;0.80;;;32.10;99.60;;;;;;5006571;28;20183;-87
2022/07/03 06:53:23;;;;;;;2.10;0.80;;;33.70;96.90;;;;;;5029082;28;20194;-88
2022/07/03 06:55:48;;;;;;;0.82;0.68;;;32.90;95.70;;;;;;5005843;28;20971;-87
2022/07/03 06:58:14;;;;;;;1.45;0.80;;;32.60;96.90;;;;;;5006798;28;20234;-88
2022/07/03 07:00:40;;;;;;;1.05;0.88;;;33.60;95.20;;;;;;5012436;28;20226;-89
2022/07/03 07:03:06;;;;;;;2.08;1.00;;;34.20;92.70;;;;;;5002459;28;20187;-87
2022/07/03 07:05:32;;;;;;;0.70;0.70;;;34.50;91.90;;;;;;5003596;28;20632;-90
2022/07/03 07:07:57;;;;;;;0.98;0.55;;;35.00;91.90;;;;;;5002521;28;20242;-86
2022/07/03 07:10:23;;;;;;;0.93;0.70;;;35.30;91.20;;;;;;5001141;28;20219;-87
2022/07/03 07:12:49;;;;;;;0.70;0.70;;;34.80;90.80;;;;;;5004949;28;20359;-87
2022/07/03 07:15:14;;;;;;;3.25;0.90;;;33.60;92.30;;;;;;5004960;28;20203;-87
2022/07/03 07:17:41;;;;;;;0.90;0.63;;;34.20;92.50;;;;;;5005151;28;20211;-88
2022/07/03 07:20:07;;;;;;;1.00;0.90;;;33.80;91.60;;;;;;5004459;28;20219;-85
2022/07/03 07:22:33;;;;;;;1.13;0.80;;;32.70;93.80;;;;;;5004637;28;20234;-90
2022/07/03 07:24:59;;;;;;;1.30;0.70;;;32.00;94.60;;;;;;5009275;28;20215;-91
2022/07/03 07:27:24;;;;;;;0.60;0.55;;;32.70;93.90;;;;;;4990413;28;20727;-90
2022/07/03 07:29:50;;;;;;;4.47;0.80;;;33.60;92.40;;;;;;5009059;28;20518;-93
2022/07/03 07:32:16;;;;;;;1.40;0.65;;;35.00;92.40;;;;;;5022935;28;20214;-92
2022/07/03 07:34:41;;;;;;;2.58;0.95;;;34.20;91.40;;;;;;5007972;28;20342;-88
2022/07/03 07:37:08;;;;;;;4.80;0.90;;;33.40;92.70;;;;;;5011772;28;20609;-88
2022/07/03 07:39:34;;;;;;;3.17;0.93;;;34.50;92.40;;;;;;5012741;28;20228;-85
2022/07/03 07:41:59;;;;;;;0.70;0.70;;;33.70;91.30;;;;;;5006792;28;20707;-90
2022/07/03 07:44:25;;;;;;;1.55;0.82;;;32.30;92.80;;;;;;5006999;28;20206;-87
2022/07/03 07:46:51;;;;;;;0.70;0.63;;;32.70;93.00;;;;;;5006945;28;20774;-87
2022/07/03 07:49:17;;;;;;;1.77;0.85;;;32.70;94.70;;;;;;5004069;28;20247;-86
2022/07/03 07:51:42;;;;;;;0.57;0.57;;;33.50;92.00;;;;;;5007414;28;20241;-88
2022/07/03 07:54:08;;;;;;;1.40;0.90;;;32.60;90.60;;;;;;5024274;28;20278;-87
2022/07/03 07:56:34;;;;;;;1.50;0.70;;;33.10;91.50;;;;;;4987985;28;20623;-87
2022/07/03 07:59:00;;;;;;;1.13;0.70;;;33.20;91.80;;;;;;5005097;28;20247;-87
2022/07/03 08:06:54;;;;;;;2.00;1.00;;;34.50;92.20;;;;;;5011833;28;20230;-86
2022/07/03 08:09:20;;;;;;;2.40;1.30;;;30.90;95.60;;;;;;5007576;28;20237;-85
2022/07/03 08:11:45;;;;;;;2.63;1.13;;;27.40;99.90;;;;;;5014759;28;20999;-84
2022/07/03 08:14:11;;;;;;;1.60;0.77;;;25.90;99.90;;;;;;5004945;28;20207;-87
2022/07/03 08:16:41;;;;;;;1.50;1.27;;;25.60;99.90;;;;;;5006592;28;20334;-87
2022/07/03 08:19:06;;;;;;;1.67;0.80;;;26.30;99.90;;;;;;5041706;28;20219;-88
2022/07/03 08:21:32;;;;;;;1.52;0.70;;;27.00;99.90;;;;;;5014170;28;20217;-90
2022/07/03 08:23:58;;;;;;;1.70;0.90;;;28.60;99.90;;;;;;5010656;28;20195;-91
2022/07/03 08:26:24;;;;;;;1.30;0.82;;;29.20;99.90;;;;;;5013903;28;20408;-87
2022/07/03 08:28:50;;;;;;;2.97;1.23;;;29.50;99.90;;;;;;5008988;28;20754;-90
2022/07/03 08:31:15;;;;;;;2.28;1.20;;;29.20;99.90;;;;;;5011596;28;20219;-85
2022/07/03 08:33:41;;;;;;;4.53;1.38;;;29.70;99.90;;;;;;5007433;28;20253;-87
2022/07/03 08:36:07;;;;;;;4.25;1.08;;;30.00;99.90;;;;;;5027312;28;21040;-85
2022/07/03 08:38:34;;;;;;;4.05;1.15;;;29.50;99.90;;;;;;4989499;28;20190;-86
2022/07/03 08:41:01;;;;;;;1.30;0.95;;;29.70;99.90;;;;;;4993917;28;20250;-92
2022/07/03 08:43:27;;;;;;;1.67;1.20;;;28.30;99.90;;;;;;5012047;28;20220;-94
2022/07/03 08:45:54;;;;;;;1.63;0.98;;;27.90;99.90;;;;;;5014056;28;20575;-92
2022/07/03 08:48:24;;;;;;;2.17;1.10;;;28.60;99.90;;;;;;5009955;28;20219;-94
2022/07/03 08:50:51;;;;;;;5.05;1.13;;;29.60;99.90;;;;;;5046702;28;20187;-91
2022/07/03 08:53:18;;;;;;;4.32;1.13;;;28.10;99.90;;;;;;5015107;28;20792;-93
2022/07/03 08:55:47;;;;;;;2.85;1.02;;;27.30;99.90;;;;;;5005842;28;20234;-90
2022/07/03 08:58:14;;;;;;;3.22;1.13;;;26.80;99.90;;;;;;5007126;28;20234;-89
2022/07/03 09:00:41;;;;;;;1.40;1.10;;;28.20;99.90;;;;;;5009485;28;20219;-90
2022/07/03 09:03:10;;;;;;;4.65;1.42;;;27.30;99.90;;;;;;5010359;28;20191;-91
2022/07/03 09:05:36;;;;;;;6.75;1.30;;;26.10;99.90;;;;;;5041204;28;20179;-84
2022/07/03 09:08:02;;;;;;;4.40;1.20;;;25.60;99.90;;;;;;5021526;28;20211;-87
2022/07/03 09:10:28;;;;;;;3.78;1.20;;;25.10;99.90;;;;;;5042468;28;20227;-86
2022/07/03 09:12:55;;;;;;;2.35;1.20;;;24.50;99.90;;;;;;5024952;28;20227;-85
2022/07/03 09:15:22;;;;;;;3.63;1.40;;;25.10;99.90;;;;;;5006441;28;20676;-91
2022/07/03 09:18:00;;;;;;;2.10;1.25;;;24.70;99.90;;;;;;5009764;28;20306;-88
2022/07/03 09:20:38;;;;;;;3.40;1.10;;;24.20;99.90;;;;;;5007720;28;20220;-86
2022/07/03 09:23:17;;;;;;;4.18;1.20;;;22.90;99.90;;;;;;4988579;28;20241;-83
2022/07/03 09:26:03;;;;;;;7.13;1.60;;;23.20;99.90;;;;;;4975475;28;20211;-85
2022/07/03 09:28:52;;;;;;;2.53;1.38;;;25.30;99.90;;;;;;4983034;28;20211;-86
2022/07/03 09:31:20;;;;;;;1.77;1.10;;;25.10;99.90;;;;;;4984104;28;20215;-85
2022/07/03 09:34:01;;;;;;;4.50;1.30;;;24.10;99.90;;;;;;4979037;28;20242;-84
2022/07/03 09:36:46;;;;;;;2.90;1.55;;;24.00;99.90;;;;;;4983017;28;20215;-89
2022/07/03 09:39:20;;;;;;;5.75;1.60;;;25.20;99.90;;;;;;4983133;28;20569;-85
2022/07/03 09:42:00;;;;;;;2.40;1.35;;;26.60;99.90;;;;;;5017881;28;20642;-86
2022/07/03 09:44:36;;;;;;;4.15;1.35;;;25.60;99.90;;;;;;5015529;28;20302;-86
2022/07/03 09:47:23;;;;;;;2.90;1.30;;;23.90;99.90;;;;;;4982826;28;20677;-87
2022/07/03 09:50:00;;;;;;;3.08;1.20;;;22.70;99.90;;;;;;4985868;28;20219;-87
2022/07/03 09:52:36;;;;;;;3.13;1.63;;;22.10;99.90;;;;;;4984209;28;20751;-84
2022/07/03 09:55:13;;;;;;;2.15;1.25;;;21.80;99.90;;;;;;4989635;28;20314;-85
2022/07/03 09:57:49;;;;;;;4.72;1.20;;;22.10;99.90;;;;;;4983417;28;20239;-82
2022/07/03 10:00:20;;;;;;;2.22;1.38;;;22.50;99.90;;;;;;5003882;28;20614;-85
2022/07/03 10:03:07;;;;;;;1.75;1.02;;;22.60;99.90;;;;;;4986026;28;20223;-86
2022/07/03 10:05:38;;;;;;;4.80;1.23;;;23.60;99.90;;;;;;4984468;28;20247;-84
2022/07/03 10:08:07;;;;;;;2.33;1.08;;;23.20;99.90;;;;;;4983525;28;20216;-85
2022/07/03 10:10:35;;;;;;;1.70;1.10;;;23.80;99.90;;;;;;4985874;28;20218;-88
2022/07/03 10:13:01;;;;;;;2.58;1.15;;;23.80;99.90;;;;;;4984751;28;20201;-85
2022/07/03 10:15:29;;;;;;;2.45;1.40;;;24.00;99.90;;;;;;4984451;28;20224;-84
2022/07/03 10:17:57;;;;;;;3.65;1.40;;;24.50;99.90;;;;;;5021703;28;20695;-86
2022/07/03 10:20:33;;;;;;;1.35;0.93;;;25.50;99.90;;;;;;4991743;28;20221;-88
2022/07/03 10:22:59;;;;;;;3.45;1.13;;;26.50;99.90;;;;;;4990440;28;20239;-86
2022/07/03 10:25:25;;;;;;;1.17;0.93;;;27.00;99.90;;;;;;4990229;28;20262;-87
2022/07/03 10:27:51;;;;;;;1.52;0.98;;;26.70;99.90;;;;;;4989066;28;20211;-84
2022/07/03 10:30:20;;;;;;;3.60;1.00;;;26.10;99.90;;;;;;4987179;28;20211;-84
2022/07/03 10:32:48;;;;;;;1.60;1.25;;;26.60;99.90;;;;;;4994083;28;20286;-85
2022/07/03 10:35:45;;;;;;;2.80;1.20;;;26.70;99.90;;;;;;4995096;28;20207;-85
2022/07/03 10:38:37;;;;;;;1.77;1.00;;;25.20;99.90;;;;;;4985121;28;20227;-85
2022/07/03 10:46:45;;;;;;;1.33;1.00;;;25.50;99.90;;;;;;4989010;28;20254;-87
2022/07/03 10:49:12;;;;;;;2.60;0.98;;;26.20;99.90;;;;;;4990434;28;21043;-91
2022/07/03 10:51:58;;;;;;;1.20;0.80;;;25.50;99.90;;;;;;5021312;28;20248;-85
2022/07/03 10:54:29;;;;;;;0.85;0.80;;;25.30;99.90;;;;;;4986868;28;20280;-88
2022/07/03 10:56:58;;;;;;;3.72;0.90;;;25.60;99.90;;;;;;4981477;28;20232;-86
2022/07/03 10:59:36;;;;;;;4.32;0.90;;;24.40;99.90;;;;;;4980998;28;20254;-86
2022/07/03 11:02:21;;;;;;;2.08;0.85;;;24.80;99.90;;;;;;4981007;28;20235;-86
2022/07/03 11:04:56;;;;;;;4.30;1.08;;;25.00;99.90;;;;;;4984568;28;20243;-83
2022/07/03 11:07:26;;;;;;;1.30;0.98;;;23.80;99.90;;;;;;5007017;28;20199;-89
2022/07/03 11:10:13;;;;;;;0.63;0.63;;;24.00;99.90;;;;;;4986109;28;20713;-84
2022/07/03 11:12:58;;;;;;;2.05;0.73;;;23.60;99.90;;;;;;4982223;28;20228;-86
2022/07/03 11:15:31;;;;;;;0.80;0.80;;;23.60;99.90;;;;;;4985720;28;20219;-85
2022/07/03 11:18:11;;;;;;;1.13;1.02;;;24.00;99.90;;;;;;5022396;28;20250;-86
2022/07/03 11:20:43;;;;;;;3.45;0.80;;;24.00;99.90;;;;;;5019395;28;20215;-87
2022/07/03 11:23:27;;;;;;;2.50;1.00;;;24.30;99.90;;;;;;5006773;28;20261;-87
2022/07/03 11:26:18;;;;;;;3.08;1.17;;;24.40;99.90;;;;;;4984767;28;20238;-87
2022/07/03 11:28:44;;;;;;;0.88;0.80;;;24.70;99.90;;;;;;4990868;28;20238;-86
2022/07/03 11:31:16;;;;;;;1.92;1.17;;;24.00;99.90;;;;;;5021496;28;20576;-84
2022/07/03 11:33:56;;;;;;;3.83;1.55;;;23.00;99.90;;;;;;4992730;28;20500;-86
2022/07/03 11:36:22;;;;;;;1.20;1.10;;;23.30;99.90;;;;;;4983756;28;20215;-85
2022/07/03 11:38:54;;;;;;;1.00;0.85;;;23.40;99.90;;;;;;4993244;28;20270;-85
2022/07/03 11:41:21;;;;;;;1.20;1.10;;;23.40;99.90;;;;;;4989049;28;20212;-87
2022/07/03 11:43:55;;;;;;;1.20;1.10;;;23.30;99.90;;;;;;4987736;28;20695;-90
2022/07/03 11:46:25;;;;;;;3.17;1.40;;;22.60;99.90;;;;;;4995385;28;20187;-87
2022/07/03 11:49:08;;;;;;;0.93;0.80;;;22.70;99.90;;;;;;5001988;28;20302;-87
2022/07/03 11:51:35;;;;;;;3.17;1.00;;;23.10;99.90;;;;;;4997359;28;20262;-91
2022/07/03 11:54:02;;;;;;;1.90;0.90;;;23.40;99.90;;;;;;4993214;28;20314;-85
2022/07/03 11:56:28;;;;;;;1.42;1.27;;;23.40;99.90;;;;;;4993026;28;20277;-90
2022/07/03 11:58:56;;;;;;;1.80;1.10;;;23.10;99.90;;;;;;4997035;28;20684;-86
2022/07/03 12:01:27;;;;;;;0.88;0.88;;;22.70;99.90;;;;;;5028757;28;20282;-89
2022/07/03 12:04:10;;;;;;;0.88;0.75;;;23.10;99.90;;;;;;4994562;28;20724;-85
2022/07/03 12:06:55;;;;;;;3.47;1.10;;;23.70;99.90;;;;;;4995644;28;20227;-88
2022/07/03 12:09:35;;;;;;;2.53;1.27;;;24.10;99.90;;;;;;4993113;28;20207;-88
2022/07/03 12:12:03;;;;;;;1.13;1.02;;;23.90;99.90;;;;;;5027969;28;20219;-86
2022/07/03 12:14:48;;;;;;;2.15;0.80;;;24.10;99.90;;;;;;4988875;28;20326;-84
2022/07/03 12:17:16;;;;;;;1.15;0.90;;;23.50;99.90;;;;;;4986595;28;20319;-85
2022/07/03 12:20:02;;;;;;;1.20;1.10;;;23.30;99.90;;;;;;4990877;28;20191;-86
2022/07/03 12:22:30;;;;;;;1.13;0.90;;;23.50;99.90;;;;;;4989129;28;20183;-85
2022/07/03 12:25:06;;;;;;;3.08;0.82;;;23.30;99.90;;;;;;4991663;28;20195;-85
2022/07/03 12:27:34;;;;;;;0.68;0.68;;;22.70;99.90;;;;;;4993894;28;20225;-87
2022/07/03 12:30:01;;;;;;;1.48;0.70;;;22.40;99.90;;;;;;5022486;28;20234;-85
2022/07/03 12:32:27;;;;;;;1.25;1.15;;;22.30;99.90;;;;;;4990379;28;20222;-83
2022/07/03 12:34:52;;;;;;;1.40;0.80;;;22.50;99.90;;;;;;4978061;28;20211;-85
2022/07/03 12:37:35;;;;;;;3.13;0.90;;;22.50;99.90;;;;;;4991847;28;20350;-87
2022/07/03 12:40:00;;;;;;;1.33;0.90;;;22.90;99.90;;;;;;4992678;28;20219;-89
2022/07/03 12:42:26;;;;;;;1.10;1.00;;;22.90;99.90;;;;;;5022320;28;20215;-85
2022/07/03 12:44:56;;;;;;;1.00;1.00;;;22.30;99.90;;;;;;4989364;28;20230;-84
2022/07/03 12:47:22;;;;;;;3.73;1.10;;;22.10;99.90;;;;;;4987893;28;21149;-84
2022/07/03 12:49:56;;;;;;;1.63;1.53;;;22.20;99.90;;;;;;4991878;28;20223;-83
2022/07/03 12:52:22;;;;;;;1.27;0.80;;;22.00;99.90;;;;;;4988687;28;20239;-86
2022/07/03 12:54:47;;;;;;;0.73;0.73;;;21.90;99.90;;;;;;4990004;28;20234;-85
2022/07/03 13:00:08;;;;;;;1.87;1.40;;;22.00;99.90;;;;;;4993907;28;20251;-88
2022/07/03 13:02:35;;;;;;;4.23;0.70;;;22.20;99.90;;;;;;4991702;28;20315;-84
2022/07/03 13:05:13;;;;;;;2.10;1.10;;;22.40;99.90;;;;;;4988875;28;20220;-82
2022/07/03 13:07:40;;;;;;;1.57;0.83;;;22.10;99.90;;;;;;5017832;28;20279;-84
2022/07/03 13:10:07;;;;;;;1.60;0.90;;;22.20;99.90;;;;;;4992081;28;20206;-83
2022/07/03 13:12:33;;;;;;;1.07;1.03;;;22.60;99.90;;;;;;4985569;28;20211;-84
2022/07/03 13:15:00;;;;;;;1.97;1.00;;;22.90;99.90;;;;;;4991330;28;20246;-84